createdAt,value
2023-11-25T00:01:32.243Z,99692.66
2023-11-25T00:04:54.115Z,99698.00
2023-11-25T00:08:17.474Z,99696.50
2023-11-25T00:11:38.905Z,99696.41
2023-11-25T00:15:00.391Z,99706.06
2023-11-25T00:18:22.484Z,99707.84
2023-11-25T00:21:44.082Z,99704.91
2023-11-25T00:25:09.911Z,99715.41
2023-11-25T00:28:32.206Z,99718.88
2023-11-25T00:31:56.252Z,99724.88
2023-11-25T00:35:17.953Z,99725.06
2023-11-25T00:38:39.837Z,99733.69
2023-11-25T00:42:05.399Z,99746.06
2023-11-25T00:45:28.018Z,99748.56
2023-11-25T00:48:50.393Z,99750.91
2023-11-25T00:52:12.075Z,99748.09
2023-11-25T00:55:33.946Z,99755.31
2023-11-25T00:58:57.774Z,99756.91
2023-11-25T01:02:19.197Z,99755.22
2023-11-25T01:05:41.005Z,99766.47
2023-11-25T01:09:02.343Z,99752.41
2023-11-25T01:12:24.180Z,99775.16
2023-11-25T01:15:47.411Z,99775.25
2023-11-25T01:19:09.416Z,99782.19
2023-11-25T01:22:31.087Z,99786.31
2023-11-25T01:25:53.130Z,99775.91
2023-11-25T01:29:14.818Z,99787.91
2023-11-25T01:32:37.965Z,99794.66
2023-11-25T01:36:00.311Z,99799.72
2023-11-25T01:39:22.133Z,99803.16
2023-11-25T01:42:43.951Z,99799.78
2023-11-25T01:46:08.129Z,99803.34
2023-11-25T01:49:31.248Z,99799.03
2023-11-25T01:52:54.630Z,99811.13
2023-11-25T01:56:16.485Z,99823.31
2023-11-25T01:59:38.553Z,99817.78
2023-11-25T02:03:00.108Z,99823.22
2023-11-25T02:06:24.469Z,99829.31
2023-11-25T02:09:45.925Z,99833.44
2023-11-25T02:13:09.586Z,99839.44
2023-11-25T02:16:31.085Z,99829.59
2023-11-25T02:19:54.960Z,99845.50
2023-11-25T02:23:23.613Z,99844.38
2023-11-25T02:26:45.344Z,99849.81
2023-11-25T02:30:09.385Z,99865.19
2023-11-25T02:33:35.408Z,99866.78
2023-11-25T02:36:56.891Z,99869.13
2023-11-25T02:40:19.699Z,99870.16
2023-11-25T02:43:42.238Z,99872.50
2023-11-25T02:47:06.019Z,99866.13
2023-11-25T02:50:28.661Z,99873.16
2023-11-25T02:53:51.466Z,99873.81
2023-11-25T02:57:20.107Z,99874.25
2023-11-25T03:00:42.031Z,99876.78
2023-11-25T03:04:06.795Z,99878.31
2023-11-25T03:07:30.667Z,99886.66
2023-11-25T03:10:52.406Z,99890.22
2023-11-25T03:14:16.553Z,99885.59
2023-11-25T03:17:38.204Z,99904.91
2023-11-25T03:20:59.495Z,99897.16
2023-11-25T03:24:22.773Z,99895.34
2023-11-25T03:27:44.132Z,99898.38
2023-11-25T03:31:08.655Z,99916.47
2023-11-25T03:34:31.379Z,99913.44
2023-11-25T03:37:53.227Z,99917.94
2023-11-25T03:41:14.865Z,99926.50
2023-11-25T03:44:38.071Z,99930.63
2023-11-25T03:48:01.772Z,99934.09
2023-11-25T03:51:23.663Z,99941.31
2023-11-25T03:54:45.331Z,99936.16
2023-11-25T03:58:07.060Z,99945.44
2023-11-25T04:01:28.532Z,99935.13
2023-11-25T04:04:51.691Z,99941.88
2023-11-25T04:08:13.344Z,99950.50
2023-11-25T04:11:34.611Z,99948.81
2023-11-25T04:14:56.400Z,99946.19
2023-11-25T04:18:17.718Z,99949.19
2023-11-25T04:21:42.929Z,99955.09
2023-11-25T04:25:07.060Z,99947.41
2023-11-25T04:28:29.123Z,99950.69
2023-11-25T04:31:51.900Z,99955.66
2023-11-25T04:35:14.798Z,99949.53
2023-11-25T04:38:37.494Z,99948.41
2023-11-25T04:41:59.301Z,99951.97
2023-11-25T04:45:21.765Z,99951.06
2023-11-25T04:48:43.308Z,99957.25
2023-11-25T04:52:05.757Z,99958.44
2023-11-25T04:55:29.410Z,99967.53
2023-11-25T04:58:51.001Z,99966.22
2023-11-25T05:02:12.477Z,99975.88
2023-11-25T05:05:34.365Z,99981.56
2023-11-25T05:08:55.634Z,99987.81
2023-11-25T05:12:20.708Z,99998.41
2023-11-25T05:15:43.008Z,99990.72
2023-11-25T05:19:04.914Z,99997.91
2023-11-25T05:22:28.627Z,99999.03
2023-11-25T05:25:50.541Z,100001.75
2023-11-25T05:29:13.717Z,100001.09
2023-11-25T05:32:34.994Z,99998.34
2023-11-25T05:35:57.002Z,100009.13
2023-11-25T05:39:21.639Z,100012.69
2023-11-25T05:42:49.271Z,100009.56
2023-11-25T05:46:22.516Z,100012.59
2023-11-25T05:49:44.496Z,100016.69
2023-11-25T05:53:07.413Z,100016.94
2023-11-25T05:56:29.013Z,100028.63
2023-11-25T05:59:50.405Z,100034.88
2023-11-25T06:03:13.070Z,100038.59
2023-11-25T06:06:34.636Z,100043.84
2023-11-25T06:09:56.080Z,100046.28
2023-11-25T06:13:17.746Z,100048.06
2023-11-25T06:16:42.837Z,100049.94
2023-11-25T06:20:06.924Z,100050.59
2023-11-25T06:23:28.523Z,100059.03
2023-11-25T06:26:51.261Z,100058.47
2023-11-25T06:30:13.841Z,100065.22
2023-11-25T06:33:37.186Z,100068.78
2023-11-25T06:37:00.547Z,100073.09
2023-11-25T06:40:22.018Z,100064.22
2023-11-25T06:43:45.138Z,100072.91
2023-11-25T06:47:06.953Z,100071.91
2023-11-25T06:50:29.630Z,100080.34
2023-11-25T06:53:52.130Z,100089.91
2023-11-25T06:57:13.522Z,100079.25
2023-11-25T07:00:34.970Z,100072.31
2023-11-25T07:03:56.955Z,100077.41
2023-11-25T07:07:18.480Z,100086.53
2023-11-25T07:10:41.476Z,100080.00
2023-11-25T07:14:03.735Z,100085.44
2023-11-25T07:17:25.576Z,100080.13
2023-11-25T07:20:48.121Z,100084.78
2023-11-25T07:24:10.407Z,100085.53
2023-11-25T07:27:34.116Z,100087.28
2023-11-25T07:30:55.759Z,100082.22
2023-11-25T07:34:17.110Z,100091.78
2023-11-25T07:37:38.668Z,100085.94
2023-11-25T07:41:01.107Z,100080.72
2023-11-25T07:44:25.045Z,100087.72
2023-11-25T07:47:47.203Z,100077.31
2023-11-25T07:51:08.681Z,100091.53
2023-11-25T07:54:29.933Z,100088.91
2023-11-25T07:57:51.724Z,100094.31
2023-11-25T08:01:15.006Z,100101.44
2023-11-25T08:04:36.709Z,100092.94
2023-11-25T08:07:58.439Z,100105.47
2023-11-25T08:11:24.513Z,100120.19
2023-11-25T08:14:45.777Z,100117.81
2023-11-25T08:18:08.476Z,100117.75
2023-11-25T08:21:29.979Z,100118.91
2023-11-25T08:24:53.870Z,100128.78
2023-11-25T08:28:15.579Z,100120.88
2023-11-25T08:31:37.066Z,100117.97
2023-11-25T08:35:00.778Z,100110.22
2023-11-25T08:38:22.425Z,100112.22
2023-11-25T08:41:44.963Z,100109.38
2023-11-25T08:45:07.972Z,100112.75
2023-11-25T08:48:31.074Z,100122.66
2023-11-25T08:51:54.048Z,100129.34
2023-11-25T08:55:19.613Z,100114.19
2023-11-25T08:58:42.507Z,100120.78
2023-11-25T09:02:06.189Z,100131.34
2023-11-25T09:05:29.766Z,100134.72
2023-11-25T09:08:52.836Z,100131.03
2023-11-25T09:12:15.876Z,100139.50
2023-11-25T09:15:41.985Z,100132.84
2023-11-25T09:19:03.979Z,100130.94
2023-11-25T09:22:25.718Z,100124.50
2023-11-25T09:25:48.426Z,100118.88
2023-11-25T09:29:10.006Z,100118.13
2023-11-25T09:32:31.276Z,100119.28
2023-11-25T09:35:52.780Z,100109.66
2023-11-25T09:39:15.884Z,100112.94
2023-11-25T09:42:38.683Z,100114.44
2023-11-25T09:46:02.942Z,100112.66
2023-11-25T09:49:24.686Z,100117.00
2023-11-25T09:52:51.308Z,100114.00
2023-11-25T09:56:14.927Z,100115.00
2023-11-25T09:59:37.890Z,100113.59
2023-11-25T10:03:01.931Z,100109.69
2023-11-25T10:06:27.215Z,100095.69
2023-11-25T10:09:49.025Z,100106.19
2023-11-25T10:13:16.029Z,100111.56
2023-11-25T10:16:43.135Z,100093.50
2023-11-25T10:20:10.685Z,100103.44
2023-11-25T10:23:32.297Z,100092.00
2023-11-25T10:26:55.476Z,100087.88
2023-11-25T10:30:17.352Z,100088.53
2023-11-25T10:33:41.821Z,100091.69
2023-11-25T10:37:05.910Z,100084.22
2023-11-25T10:40:28.555Z,100095.00
2023-11-25T10:43:50.308Z,100082.75
2023-11-25T10:47:30.660Z,100087.63
2023-11-25T10:50:53.755Z,100090.63
2023-11-25T10:54:20.106Z,100086.13
2023-11-25T10:57:43.019Z,100085.00
2023-11-25T11:01:04.979Z,100089.31
2023-11-25T11:04:34.028Z,100078.63
2023-11-25T11:08:02.820Z,100068.69
2023-11-25T11:11:32.954Z,100060.22
2023-11-25T11:15:01.290Z,100061.91
2023-11-25T11:18:26.254Z,100061.72
2023-11-25T11:21:53.598Z,100071.28
2023-11-25T11:25:24.927Z,100061.53
2023-11-25T11:28:50.823Z,100058.16
2023-11-25T11:32:15.868Z,100060.31
2023-11-25T11:35:39.566Z,100051.81
2023-11-25T11:39:01.281Z,100063.78
2023-11-25T11:42:35.538Z,100062.28
2023-11-25T11:45:57.167Z,100061.34
2023-11-25T11:49:20.030Z,100062.03
2023-11-25T11:53:08.315Z,100065.03
2023-11-25T11:57:03.487Z,100061.44
2023-11-25T12:00:30.665Z,100063.22
2023-11-25T12:03:54.904Z,100059.50
2023-11-25T12:07:16.721Z,100052.16
2023-11-25T12:10:39.692Z,100049.63
2023-11-25T12:14:01.726Z,100052.06
2023-11-25T12:17:25.214Z,100059.56
2023-11-25T12:20:46.942Z,100058.75
2023-11-25T12:24:14.226Z,100060.13
2023-11-25T12:27:37.056Z,100060.50
2023-11-25T12:30:58.479Z,100057.41
2023-11-25T12:34:21.602Z,100052.25
2023-11-25T12:37:44.666Z,100055.72
2023-11-25T12:41:12.100Z,100068.13
2023-11-25T12:44:51.602Z,100067.94
2023-11-25T12:48:16.842Z,100070.19
2023-11-25T12:51:44.968Z,100064.00
2023-11-25T12:55:08.406Z,100056.94
2023-11-25T12:58:30.022Z,100054.03
2023-11-25T13:01:51.956Z,100052.91
2023-11-25T13:05:24.979Z,100052.16
2023-11-25T13:08:47.759Z,100063.78
2023-11-25T13:12:09.519Z,100055.63
2023-11-25T13:15:30.788Z,100067.94
2023-11-25T13:18:52.837Z,100071.69
2023-11-25T13:22:14.328Z,100075.63
2023-11-25T13:25:37.037Z,100076.00
2023-11-25T13:28:58.690Z,100080.13
2023-11-25T13:32:20.184Z,100080.50
2023-11-25T13:35:41.774Z,100087.44
2023-11-25T13:39:05.512Z,100090.72
2023-11-25T13:42:28.706Z,100094.75
2023-11-25T13:45:50.976Z,100094.19
2023-11-25T13:49:13.624Z,100096.06
2023-11-25T13:52:35.225Z,100096.06
2023-11-25T13:55:56.380Z,100097.44
2023-11-25T13:59:19.023Z,100094.13
2023-11-25T14:02:41.010Z,100093.50
2023-11-25T14:06:02.672Z,100086.38
2023-11-25T14:09:24.916Z,100091.97
2023-11-25T14:12:46.386Z,100096.56
2023-11-25T14:16:10.805Z,100100.31
2023-11-25T14:19:32.270Z,100104.81
2023-11-25T14:22:54.129Z,100102.53
2023-11-25T14:26:15.945Z,100106.09
2023-11-25T14:29:37.678Z,100110.22
2023-11-25T14:33:00.700Z,100105.63
2023-11-25T14:36:22.987Z,100102.56
2023-11-25T14:39:51.211Z,100116.38
2023-11-25T14:43:16.450Z,100116.63
2023-11-25T14:46:37.989Z,100118.38
2023-11-25T14:50:01.360Z,100115.69
2023-11-25T14:53:22.939Z,100126.56
2023-11-25T14:56:46.460Z,100140.69
2023-11-25T15:00:11.581Z,100141.53
2023-11-25T15:03:33.705Z,100145.47
2023-11-25T15:06:57.487Z,100145.34
2023-11-25T15:10:18.824Z,100144.03
2023-11-25T15:13:40.721Z,100151.47
2023-11-25T15:17:05.352Z,100163.13
2023-11-25T15:20:27.154Z,100156.84
2023-11-25T15:23:49.998Z,100155.13
2023-11-25T15:27:13.711Z,100152.25
2023-11-25T15:30:35.901Z,100152.09
2023-11-25T15:33:57.504Z,100153.69
2023-11-25T15:37:18.950Z,100147.69
2023-11-25T15:40:42.098Z,100150.88
2023-11-25T15:44:04.525Z,100162.22
2023-11-25T15:47:26.565Z,100162.22
2023-11-25T15:50:48.363Z,100155.28
2023-11-25T15:54:10.071Z,100166.53
2023-11-25T15:57:32.957Z,100170.69
2023-11-25T16:00:56.257Z,100167.13
2023-11-25T16:04:19.342Z,100166.09
2023-11-25T16:07:40.981Z,100174.38
2023-11-25T16:11:02.790Z,100173.34
2023-11-25T16:14:25.887Z,100176.75
2023-11-25T16:17:47.396Z,100176.63
2023-11-25T16:21:09.076Z,100182.81
2023-11-25T16:24:33.038Z,100181.13
2023-11-25T16:27:54.487Z,100194.38
2023-11-25T16:31:17.345Z,100191.81
2023-11-25T16:34:40.975Z,100192.75
2023-11-25T16:38:02.441Z,100201.38
2023-11-25T16:41:24.351Z,100208.84
2023-11-25T16:44:46.667Z,100208.06
2023-11-25T16:48:10.373Z,100208.84
2023-11-25T16:51:32.236Z,100212.22
2023-11-25T16:54:53.606Z,100230.78
2023-11-25T16:58:14.791Z,100231.63
2023-11-25T17:01:36.788Z,100239.41
2023-11-25T17:04:59.863Z,100252.31
2023-11-25T17:08:21.448Z,100263.63
2023-11-25T17:11:42.670Z,100272.06
2023-11-25T17:15:03.869Z,100273.94
2023-11-25T17:18:25.235Z,100276.72
2023-11-25T17:21:50.640Z,100280.88
2023-11-25T17:25:11.924Z,100287.81
2023-11-25T17:28:34.371Z,100296.28
2023-11-25T17:31:55.684Z,100292.91
2023-11-25T17:35:18.662Z,100300.09
2023-11-25T17:38:41.506Z,100303.75
2023-11-25T17:42:02.863Z,100310.13
2023-11-25T17:45:24.196Z,100309.53
2023-11-25T17:48:45.759Z,100305.34
2023-11-25T17:52:09.043Z,100318.25
2023-11-25T17:55:31.755Z,100318.00
2023-11-25T17:58:53.106Z,100321.63
2023-11-25T18:02:15.560Z,100321.38
2023-11-25T18:05:37.841Z,100326.72
2023-11-25T18:08:59.306Z,100333.00
2023-11-25T18:12:21.979Z,100343.56
2023-11-25T18:15:43.863Z,100344.50
2023-11-25T18:19:05.156Z,100348.75
2023-11-25T18:22:26.556Z,100345.38
2023-11-25T18:25:47.785Z,100363.97
2023-11-25T18:29:11.209Z,100354.66
2023-11-25T18:32:33.101Z,100360.53
2023-11-25T18:35:55.074Z,100371.78
2023-11-25T18:39:16.371Z,100368.41
2023-11-25T18:42:38.184Z,100378.97
2023-11-25T18:46:02.453Z,100376.28
2023-11-25T18:49:23.895Z,100380.06
2023-11-25T18:52:45.195Z,100388.13
2023-11-25T18:56:07.087Z,100398.69
2023-11-25T18:59:28.595Z,100394.28
2023-11-25T19:02:51.703Z,100395.66
2023-11-25T19:06:13.339Z,100397.84
2023-11-25T19:09:34.644Z,100408.19
2023-11-25T19:12:55.893Z,100400.03
2023-11-25T19:16:17.880Z,100404.66
2023-11-25T19:19:40.807Z,100415.31
2023-11-25T19:23:02.510Z,100434.47
2023-11-25T19:26:25.961Z,100431.66
2023-11-25T19:29:47.141Z,100428.44
2023-11-25T19:33:09.860Z,100433.84
2023-11-25T19:36:32.601Z,100439.25
2023-11-25T19:39:53.828Z,100442.81
2023-11-25T19:43:15.018Z,100450.31
2023-11-25T19:46:36.579Z,100453.16
2023-11-25T19:49:57.932Z,100462.88
2023-11-25T19:53:20.687Z,100459.31
2023-11-25T19:56:42.596Z,100463.81
2023-11-25T20:00:05.943Z,100472.28
2023-11-25T20:03:33.911Z,100476.31
2023-11-25T20:06:59.283Z,100480.09
2023-11-25T20:10:22.226Z,100478.50
2023-11-25T20:13:43.354Z,100481.88
2023-11-25T20:17:05.508Z,100494.28
2023-11-25T20:20:27.415Z,100486.97
2023-11-25T20:23:49.125Z,100481.88
2023-11-25T20:27:12.000Z,100490.31
2023-11-25T20:30:33.359Z,100492.53
2023-11-25T20:33:54.712Z,100502.09
2023-11-25T20:37:16.269Z,100508.88
2023-11-25T20:40:37.922Z,100521.22
2023-11-25T20:44:01.431Z,100531.44
2023-11-25T20:47:23.420Z,100531.13
2023-11-25T20:50:45.075Z,100534.41
2023-11-25T20:54:09.368Z,100541.88
2023-11-25T20:57:30.579Z,100552.09
2023-11-25T21:00:53.355Z,100547.94
2023-11-25T21:04:14.836Z,100556.91
2023-11-25T21:07:36.660Z,100559.84
2023-11-25T21:10:58.058Z,100566.09
2023-11-25T21:14:20.215Z,100574.16
2023-11-25T21:17:43.610Z,100573.47
2023-11-25T21:21:05.228Z,100568.56
2023-11-25T21:24:28.202Z,100568.63
2023-11-25T21:27:50.530Z,100576.78
2023-11-25T21:31:13.093Z,100574.88
2023-11-25T21:34:36.152Z,100585.50
2023-11-25T21:37:58.429Z,100590.72
2023-11-25T21:41:19.971Z,100590.78
2023-11-25T21:44:41.424Z,100593.22
2023-11-25T21:48:03.603Z,100598.59
2023-11-25T21:51:26.741Z,100596.94
2023-11-25T21:54:48.164Z,100592.69
2023-11-25T21:58:09.386Z,100601.22
2023-11-25T22:01:30.607Z,100604.63
2023-11-25T22:04:51.919Z,100614.22
2023-11-25T22:08:15.025Z,100616.94
2023-11-25T22:11:36.410Z,100609.22
2023-11-25T22:14:57.696Z,100614.16
2023-11-25T22:18:19.097Z,100615.78
2023-11-25T22:21:40.483Z,100616.94
2023-11-25T22:25:10.791Z,100621.31
2023-11-25T22:28:32.729Z,100628.59
2023-11-25T22:31:55.112Z,100624.41
2023-11-25T22:35:17.655Z,100626.09
2023-11-25T22:38:39.978Z,100633.31
2023-11-25T22:42:02.668Z,100636.59
2023-11-25T22:45:24.028Z,100645.34
2023-11-25T22:48:45.499Z,100647.47
2023-11-25T22:52:06.940Z,100645.91
2023-11-25T22:55:29.142Z,100646.69
2023-11-25T22:58:51.719Z,100651.41
2023-11-25T23:02:16.084Z,100648.84
2023-11-25T23:05:38.227Z,100646.19
2023-11-25T23:08:59.714Z,100650.69
2023-11-25T23:12:21.468Z,100651.69
2023-11-25T23:15:44.208Z,100658.53
2023-11-25T23:19:05.613Z,100653.25
2023-11-25T23:22:27.131Z,100654.34
2023-11-25T23:25:49.563Z,100652.84
2023-11-25T23:29:11.177Z,100661.56
2023-11-25T23:32:34.768Z,100663.44
2023-11-25T23:35:56.227Z,100659.19
2023-11-25T23:39:17.888Z,100661.94
2023-11-25T23:42:39.956Z,100659.50
2023-11-25T23:46:01.454Z,100652.41
2023-11-25T23:49:24.705Z,100654.28
2023-11-25T23:52:46.200Z,100656.84
2023-11-25T23:56:08.609Z,100667.19
2023-11-25T23:59:32.417Z,100668.41
